Startpagina
METAR-TAF:

METAR-TAF

Vliegvelden :

Koror, Babelthuap Island, Palau

Roman Tmetuchl International Airport

breedte: 07-22N, lengte: 134-32E, hoogte: 54 m

Actueel weer

Dit bericht is 57 minuten geleden gemaakt, om 05:55 UTC
Wind 8 kt uit het westen
Temperatuur 30°C
Vochtigheid 66%
Druk 1008 hPa
Zicht: 24.1 km
Verspreide wolken op 1500 ft, Stapelwolken.
Gebroken wolken op 12000 ft
Gebroken wolken op 30000 ft

METAR: PTRO 240555Z 28008KT 15SM SCT015TCU BKN120 BKN300 30/23 A2976 RMK TCU ALQDS

Tijdstip: 15:52 (06:52 UTC)

Verwachting

Dit bericht is 1 uur en het 22 minuten geleden gemaakt, om 05:30 UTC
Verwachting geldig van 24 om 06 UTC tot 25 om 06 UTC
Wind 8 kt uit het westen
Zicht: 10 km
Gebroken wolken op 1500 ft
Gebroken wolken op 12000 ft
buien in de omgeving
Van 24 om 0900 UTC
Wind 5 kt uit variabele richting
Zicht: 10 km
Verspreide wolken op 1500 ft
Verspreide wolken op 12000 ft
buien in de omgeving

TAF: PTRO 240530Z 2406/2506 28008KT P6SM VCSH BKN015 BKN120 FM240900 VRB05KT P6SM VCSH SCT015 SCT120

Waarnemingen en weersverwachtingen van meer dan 4000 vliegvelden (METAR en TAF).

De beschikbare stations zijn de gele en rode punten op de kaart.

Ga met uw muis naar het station om de naam te zien.

Klik dan om waarnemingen en weersverwachtingen te zien.

kaart wijzigen: klik op de groene knoppen met een zwart kruis om in te zoomen, op de groene knop met een streepje om uit te zoomen of op de groene pijlen voor aangrenzende kaarten.


METAR-TAF: